Външен сензор Measurements

Back to Overview

Timestamp Temperature Humidity
4/25/2019 9:55:07 AM 14.2 C 60.4%
4/25/2019 9:48:06 AM 14.3 C 60.9%
4/25/2019 9:42:34 AM 13.9 C 64.0%
4/25/2019 9:35:32 AM 13.2 C 65.1%
4/25/2019 9:28:29 AM 12.7 C 66.2%
4/25/2019 9:21:28 AM 12.2 C 68.3%
4/25/2019 9:14:26 AM 11.8 C 70.5%
4/25/2019 9:07:24 AM 11.3 C 72.1%
4/25/2019 9:00:23 AM 10.9 C 74.4%
4/25/2019 8:53:21 AM 10.5 C 75.1%
4/25/2019 8:46:20 AM 9.9 C 75.4%
4/25/2019 8:40:17 AM 9.3 C 78.7%
4/25/2019 8:34:16 AM 8.6 C 81.0%
4/25/2019 8:27:44 AM 7.9 C 82.5%
4/25/2019 8:20:42 AM 7.6 C 83.0%
4/25/2019 8:13:40 AM 7.3 C 82.7%
4/25/2019 8:06:36 AM 7.1 C 82.5%
4/25/2019 7:59:36 AM 6.9 C 82.0%
4/25/2019 7:52:35 AM 7.0 C 81.0%
4/25/2019 7:45:33 AM 7.3 C 79.5%
4/25/2019 7:38:31 AM 7.6 C 77.8%
4/25/2019 7:31:29 AM 7.9 C 76.3%
4/25/2019 7:25:26 AM 8.6 C 74.5%
4/25/2019 7:18:25 AM 8.4 C 74.5%
4/25/2019 7:11:23 AM 8.0 C 75.7%
4/25/2019 7:05:52 AM 7.3 C 78.3%
4/25/2019 7:01:34 AM 6.6 C 80.2%
4/25/2019 6:54:33 AM 6.0 C 81.7%
4/25/2019 6:47:30 AM 6.2 C 80.4%
4/25/2019 6:40:28 AM 6.4 C 79.2%
4/25/2019 6:33:26 AM 6.5 C 78.2%
4/25/2019 6:26:24 AM 6.6 C 78.0%
4/25/2019 6:19:22 AM 7.0 C 76.3%
4/25/2019 6:12:20 AM 7.6 C 74.5%
4/25/2019 6:05:18 AM 7.6 C 73.6%
4/25/2019 5:58:16 AM 7.3 C 75.5%
4/25/2019 5:51:10 AM 7.1 C 76.0%
4/25/2019 5:44:08 AM 6.8 C 76.3%
4/25/2019 5:37:11 AM 6.5 C 77.2%
4/25/2019 5:30:08 AM 6.6 C 77.2%
4/25/2019 5:23:08 AM 6.7 C 76.8%
4/25/2019 5:16:06 AM 6.4 C 77.2%
4/25/2019 5:09:04 AM 6.3 C 77.2%
4/25/2019 5:02:01 AM 6.1 C 77.7%
4/25/2019 4:55:00 AM 6.3 C 77.3%
4/25/2019 4:47:57 AM 6.7 C 76.6%
4/25/2019 4:40:56 AM 7.1 C 75.5%
4/25/2019 4:33:48 AM 7.6 C 73.3%
4/25/2019 4:26:53 AM 7.5 C 73.2%
4/25/2019 4:19:42 AM 7.1 C 74.3%